createdAt,value
2023-02-24T00:00:56.020Z,5.66
2023-02-24T00:01:56.033Z,5.66
2023-02-24T00:02:56.011Z,5.61
2023-02-24T00:03:55.995Z,5.59
2023-02-24T00:04:55.978Z,5.62
2023-02-24T00:05:55.982Z,5.65
2023-02-24T00:06:55.974Z,5.61
2023-02-24T00:07:55.984Z,5.65
2023-02-24T00:08:55.957Z,5.62
2023-02-24T00:09:55.935Z,5.67
2023-02-24T00:10:55.948Z,5.65
2023-02-24T00:11:55.951Z,5.70
2023-02-24T00:12:55.964Z,5.69
2023-02-24T00:13:55.924Z,5.65
2023-02-24T00:14:55.933Z,5.61
2023-02-24T00:15:55.940Z,5.61
2023-02-24T00:16:55.982Z,5.62
2023-02-24T00:17:55.979Z,5.55
2023-02-24T00:18:55.890Z,5.55
2023-02-24T00:19:55.874Z,5.59
2023-02-24T00:20:55.908Z,5.52
2023-02-24T00:21:55.873Z,5.51
2023-02-24T00:22:55.886Z,5.47
2023-02-24T00:23:55.846Z,5.40
2023-02-24T00:24:55.860Z,5.37
2023-02-24T00:25:55.838Z,5.33
2023-02-24T00:26:55.849Z,5.30
2023-02-24T00:27:55.859Z,5.32
2023-02-24T00:28:55.851Z,5.29
2023-02-24T00:29:55.814Z,5.30
2023-02-24T00:30:55.910Z,5.33
2023-02-24T00:31:55.974Z,5.32
2023-02-24T00:32:55.854Z,5.27
2023-02-24T00:33:55.792Z,5.29
2023-02-24T00:34:55.812Z,5.25
2023-02-24T00:35:55.775Z,5.27
2023-02-24T00:36:55.783Z,5.25
2023-02-24T00:37:55.782Z,5.22
2023-02-24T00:38:55.775Z,5.24
2023-02-24T00:39:55.762Z,5.29
2023-02-24T00:40:55.760Z,5.29
2023-02-24T00:41:55.733Z,5.25
2023-02-24T00:42:55.745Z,5.25
2023-02-24T00:43:55.721Z,5.21
2023-02-24T00:44:55.726Z,5.21
2023-02-24T00:45:55.788Z,5.19
2023-02-24T00:46:56.384Z,5.18
2023-02-24T00:47:55.713Z,5.16
2023-02-24T00:48:55.695Z,5.18
2023-02-24T00:49:55.721Z,5.19
2023-02-24T00:50:55.757Z,5.21
2023-02-24T00:51:55.676Z,5.24
2023-02-24T00:52:55.714Z,5.24
2023-02-24T00:53:55.654Z,5.22
2023-02-24T00:54:55.653Z,5.25
2023-02-24T00:55:55.642Z,5.29
2023-02-24T00:56:56.550Z,5.30
2023-02-24T00:57:55.651Z,5.30
2023-02-24T00:58:56.562Z,5.30
2023-02-24T00:59:55.621Z,5.27
2023-02-24T01:00:55.620Z,5.29
2023-02-24T01:01:55.652Z,5.30
2023-02-24T01:02:55.620Z,5.33
2023-02-24T01:03:55.636Z,5.34
2023-02-24T01:04:55.580Z,5.33
2023-02-24T01:05:55.575Z,5.34
2023-02-24T01:06:55.599Z,5.29
2023-02-24T01:07:55.583Z,5.27
2023-02-24T01:08:55.715Z,5.30
2023-02-24T01:09:55.617Z,5.30
2023-02-24T01:10:55.546Z,5.30
2023-02-24T01:11:55.610Z,5.29
2023-02-24T01:12:55.535Z,5.25
2023-02-24T01:13:55.535Z,5.25
2023-02-24T01:14:55.525Z,5.27
2023-02-24T01:15:55.842Z,5.22
2023-02-24T01:16:55.865Z,5.22
2023-02-24T01:17:55.505Z,5.27
2023-02-24T01:18:55.506Z,5.24
2023-02-24T01:19:55.514Z,5.21
2023-02-24T01:20:55.474Z,5.21
2023-02-24T01:21:55.490Z,5.21
2023-02-24T01:22:55.455Z,5.21
2023-02-24T01:23:55.463Z,5.15
2023-02-24T01:24:55.478Z,5.19
2023-02-24T01:25:55.448Z,5.12
2023-02-24T01:26:55.431Z,5.14
2023-02-24T01:27:55.425Z,5.09
2023-02-24T01:28:55.536Z,5.12
2023-02-24T01:29:55.444Z,5.14
2023-02-24T01:30:56.468Z,5.11
2023-02-24T01:31:56.609Z,5.11
2023-02-24T01:32:56.409Z,5.09
2023-02-24T01:33:56.422Z,5.09
2023-02-24T01:34:55.783Z,5.11
2023-02-24T01:35:56.223Z,5.07
2023-02-24T01:36:56.382Z,5.14
2023-02-24T01:37:56.292Z,5.01
2023-02-24T01:38:56.203Z,5.03
2023-02-24T01:39:56.356Z,5.00
2023-02-24T01:40:55.342Z,4.98
2023-02-24T01:41:55.354Z,4.98
2023-02-24T01:42:55.331Z,5.04
2023-02-24T01:43:55.432Z,5.04
2023-02-24T01:44:55.440Z,5.06
2023-02-24T01:45:55.449Z,5.06
2023-02-24T01:46:55.569Z,5.04
2023-02-24T01:47:55.320Z,5.03
2023-02-24T01:48:55.301Z,5.04
2023-02-24T01:49:55.371Z,5.06
2023-02-24T01:50:55.373Z,5.01
2023-02-24T01:51:55.532Z,5.00
2023-02-24T01:52:55.273Z,4.98
2023-02-24T01:53:55.392Z,5.03
2023-02-24T01:54:55.353Z,5.00
2023-02-24T01:55:55.310Z,5.03
2023-02-24T01:56:55.319Z,5.00
2023-02-24T01:57:55.328Z,5.00
2023-02-24T01:58:55.339Z,5.00
2023-02-24T01:59:55.350Z,4.98
2023-02-24T02:00:55.236Z,4.94
2023-02-24T02:01:55.500Z,4.96
2023-02-24T02:02:55.387Z,4.93
2023-02-24T02:03:55.208Z,4.96
2023-02-24T02:04:55.270Z,4.97
2023-02-24T02:05:55.199Z,4.96
2023-02-24T02:06:55.390Z,4.94
2023-02-24T02:07:55.189Z,4.93
2023-02-24T02:08:55.201Z,4.91
2023-02-24T02:09:55.520Z,4.94
2023-02-24T02:10:55.208Z,4.89
2023-02-24T02:11:55.263Z,4.86
2023-02-24T02:12:55.228Z,4.83
2023-02-24T02:13:55.269Z,4.83
2023-02-24T02:14:55.138Z,4.85
2023-02-24T02:15:55.272Z,4.86
2023-02-24T02:16:55.144Z,4.83
2023-02-24T02:17:55.150Z,4.86
2023-02-24T02:18:55.147Z,4.86
2023-02-24T02:19:55.106Z,4.86
2023-02-24T02:20:55.186Z,4.88
2023-02-24T02:21:55.296Z,4.89
2023-02-24T02:22:55.313Z,4.88
2023-02-24T02:23:55.320Z,4.82
2023-02-24T02:24:55.102Z,4.82
2023-02-24T02:25:55.103Z,4.82
2023-02-24T02:26:55.324Z,4.85
2023-02-24T02:27:55.052Z,4.83
2023-02-24T02:28:55.332Z,4.83
2023-02-24T02:29:55.345Z,4.88
2023-02-24T02:30:55.428Z,4.86
2023-02-24T02:31:55.601Z,4.86
2023-02-24T02:32:55.067Z,4.86
2023-02-24T02:33:55.162Z,4.86
2023-02-24T02:34:55.376Z,4.89
2023-02-24T02:35:55.473Z,4.89
2023-02-24T02:36:54.990Z,4.86
2023-02-24T02:37:55.481Z,4.88
2023-02-24T02:38:54.992Z,4.85
2023-02-24T02:39:55.488Z,4.86
2023-02-24T02:40:55.490Z,4.85
2023-02-24T02:41:54.974Z,4.85
2023-02-24T02:42:55.022Z,4.86
2023-02-24T02:43:54.940Z,4.85
2023-02-24T02:44:55.518Z,4.83
2023-02-24T02:45:55.570Z,4.86
2023-02-24T02:46:55.528Z,4.83
2023-02-24T02:47:54.937Z,4.83
2023-02-24T02:48:54.967Z,4.82
2023-02-24T02:49:54.944Z,4.82
2023-02-24T02:50:55.012Z,4.79
2023-02-24T02:51:54.912Z,4.75
2023-02-24T02:52:54.954Z,4.77
2023-02-24T02:53:54.963Z,4.74
2023-02-24T02:54:54.905Z,4.74
2023-02-24T02:55:54.913Z,4.75
2023-02-24T02:56:54.907Z,4.75
2023-02-24T02:57:54.910Z,4.75
2023-02-24T02:58:54.934Z,4.77
2023-02-24T02:59:55.019Z,4.75
2023-02-24T03:02:20.922Z,4.74
2023-02-24T03:03:20.761Z,4.72
2023-02-24T03:04:20.788Z,4.71
2023-02-24T03:05:20.767Z,4.71
2023-02-24T03:06:20.949Z,4.69
2023-02-24T03:07:20.788Z,4.75
2023-02-24T03:08:20.742Z,4.74
2023-02-24T03:09:20.796Z,4.72
2023-02-24T03:10:21.017Z,4.69
2023-02-24T03:11:21.349Z,4.69
2023-02-24T03:12:20.977Z,4.72
2023-02-24T03:13:20.997Z,4.69
2023-02-24T03:14:20.831Z,4.71
2023-02-24T03:15:21.006Z,4.64
2023-02-24T03:16:20.859Z,4.66
2023-02-24T03:17:20.893Z,4.71
2023-02-24T03:18:20.678Z,4.67
2023-02-24T03:19:20.770Z,4.66
2023-02-24T03:20:21.037Z,4.67
2023-02-24T03:21:21.393Z,4.66
2023-02-24T03:22:21.055Z,4.64
2023-02-24T03:23:20.914Z,4.61
2023-02-24T03:24:21.083Z,4.59
2023-02-24T03:25:21.093Z,4.61
2023-02-24T03:26:21.085Z,4.60
2023-02-24T03:27:20.928Z,4.61
2023-02-24T03:28:20.883Z,4.64
2023-02-24T03:29:20.688Z,4.61
2023-02-24T03:30:21.143Z,4.61
2023-02-24T03:31:21.301Z,4.59
2023-02-24T03:32:20.745Z,4.59
2023-02-24T03:33:20.586Z,4.61
2023-02-24T03:34:20.605Z,4.56
2023-02-24T03:35:20.613Z,4.61
2023-02-24T03:36:20.611Z,4.57
2023-02-24T03:37:20.601Z,4.56
2023-02-24T03:38:20.759Z,4.57
2023-02-24T03:39:20.762Z,4.59
2023-02-24T03:40:20.761Z,4.57
2023-02-24T03:41:21.189Z,4.57
2023-02-24T03:42:20.566Z,4.59
2023-02-24T03:43:21.022Z,4.54
2023-02-24T03:44:21.091Z,4.53
2023-02-24T03:45:21.002Z,4.51
2023-02-24T03:46:21.062Z,4.54
2023-02-24T03:47:20.882Z,4.53
2023-02-24T03:48:21.262Z,4.56
2023-02-24T03:49:21.069Z,4.53
2023-02-24T03:50:20.483Z,4.51
2023-02-24T03:51:21.689Z,4.57
2023-02-24T03:52:20.679Z,4.54
2023-02-24T03:53:20.638Z,4.53
2023-02-24T03:54:20.696Z,4.57
2023-02-24T03:55:21.297Z,4.56
2023-02-24T03:56:20.458Z,4.54
2023-02-24T03:57:20.664Z,4.54
2023-02-24T03:58:21.084Z,4.53
2023-02-24T03:59:21.419Z,4.53
2023-02-24T04:00:20.941Z,4.49
2023-02-24T04:01:20.685Z,4.53
2023-02-24T04:02:20.742Z,4.48
2023-02-24T04:03:21.283Z,4.43
2023-02-24T04:04:20.492Z,4.49
2023-02-24T04:05:20.380Z,4.56
2023-02-24T04:06:20.408Z,4.49
2023-02-24T04:07:20.532Z,4.53
2023-02-24T04:08:20.533Z,4.48
2023-02-24T04:09:20.353Z,4.48
2023-02-24T04:10:20.590Z,4.43
2023-02-24T04:11:20.918Z,4.45
2023-02-24T04:12:20.661Z,4.46
2023-02-24T04:13:20.387Z,4.46
2023-02-24T04:14:20.370Z,4.45
2023-02-24T04:15:20.368Z,4.46
2023-02-24T04:16:20.323Z,4.43
2023-02-24T04:17:20.619Z,4.43
2023-02-24T04:18:20.347Z,4.43
2023-02-24T04:19:20.605Z,4.41
2023-02-24T04:20:20.626Z,4.39
2023-02-24T04:21:20.946Z,4.39
2023-02-24T04:22:20.687Z,4.38
2023-02-24T04:23:20.448Z,4.38
2023-02-24T04:24:20.488Z,4.36
2023-02-24T04:25:20.648Z,4.36
2023-02-24T04:26:20.848Z,4.36
2023-02-24T04:27:20.947Z,4.36
2023-02-24T04:28:20.257Z,4.39
2023-02-24T04:29:20.269Z,4.38
2023-02-24T04:30:20.272Z,4.36
2023-02-24T04:31:20.857Z,4.34
2023-02-24T04:32:20.377Z,4.36
2023-02-24T04:33:20.289Z,4.35
2023-02-24T04:34:20.400Z,4.35
2023-02-24T04:35:20.594Z,4.35
2023-02-24T04:36:20.517Z,4.34
2023-02-24T04:37:20.517Z,4.34
2023-02-24T04:38:20.601Z,4.38
2023-02-24T04:39:20.198Z,4.38
2023-02-24T04:40:20.600Z,4.36
2023-02-24T04:41:21.289Z,4.35
2023-02-24T04:42:20.154Z,4.34
2023-02-24T04:43:20.591Z,4.35
2023-02-24T04:44:20.201Z,4.35
2023-02-24T04:45:20.422Z,4.35
2023-02-24T04:46:20.884Z,4.35
2023-02-24T04:47:20.572Z,4.36
2023-02-24T04:48:20.788Z,4.38
2023-02-24T04:49:20.105Z,4.38
2023-02-24T04:50:20.080Z,4.38
2023-02-24T04:51:20.299Z,4.41
2023-02-24T04:52:20.088Z,4.42
2023-02-24T04:53:20.071Z,4.42
2023-02-24T04:54:20.122Z,4.39
2023-02-24T04:55:20.048Z,4.48
2023-02-24T04:56:20.093Z,4.43
2023-02-24T04:57:20.322Z,4.42
2023-02-24T04:58:20.107Z,4.38
2023-02-24T04:59:20.048Z,4.39
2023-02-24T05:00:20.011Z,4.34
2023-02-24T05:01:20.323Z,4.35
2023-02-24T05:02:20.296Z,4.35
2023-02-24T05:03:20.028Z,4.36
2023-02-24T05:04:20.102Z,4.31
2023-02-24T05:05:20.070Z,4.31
2023-02-24T05:06:20.084Z,4.31
2023-02-24T05:07:20.373Z,4.27
2023-02-24T05:08:20.099Z,4.28
2023-02-24T05:09:19.956Z,4.30
2023-02-24T05:10:19.978Z,4.30
2023-02-24T05:11:20.330Z,4.28
2023-02-24T05:12:20.000Z,4.30
2023-02-24T05:13:19.928Z,4.28
2023-02-24T05:14:19.937Z,4.26
2023-02-24T05:15:19.947Z,4.30
2023-02-24T05:16:19.979Z,4.28
2023-02-24T05:17:20.079Z,4.30
2023-02-24T05:18:19.961Z,4.26
2023-02-24T05:19:19.981Z,4.27
2023-02-24T05:20:19.977Z,4.23
2023-02-24T05:21:20.248Z,4.26
2023-02-24T05:22:19.896Z,4.28
2023-02-24T05:23:19.987Z,4.26
2023-02-24T05:24:20.077Z,4.27
2023-02-24T05:25:19.886Z,4.26
2023-02-24T05:26:19.872Z,4.24
2023-02-24T05:27:20.044Z,4.26
2023-02-24T05:28:19.919Z,4.21
2023-02-24T05:29:19.843Z,4.23
2023-02-24T05:30:19.834Z,4.20
2023-02-24T05:31:20.445Z,4.20
2023-02-24T05:32:19.898Z,4.23
2023-02-24T05:33:19.862Z,4.21
2023-02-24T05:34:19.854Z,4.24
2023-02-24T05:35:19.803Z,4.23
2023-02-24T05:36:19.783Z,4.26
2023-02-24T05:37:20.732Z,4.26
2023-02-24T05:38:19.882Z,4.26
2023-02-24T05:39:19.989Z,4.21
2023-02-24T05:40:20.202Z,4.20
2023-02-24T05:41:20.414Z,4.18
2023-02-24T05:42:19.779Z,4.21
2023-02-24T05:43:19.921Z,4.20
2023-02-24T05:44:20.010Z,4.18
2023-02-24T05:45:19.727Z,4.20
2023-02-24T05:46:19.765Z,4.18
2023-02-24T05:47:20.114Z,4.20
2023-02-24T05:48:19.897Z,4.17
2023-02-24T05:49:19.745Z,4.20
2023-02-24T05:50:19.844Z,4.21
2023-02-24T05:51:20.579Z,4.16
2023-02-24T05:52:20.218Z,4.17
2023-02-24T05:53:20.236Z,4.17
2023-02-24T05:54:20.266Z,4.18
2023-02-24T05:55:20.410Z,4.18
2023-02-24T05:56:19.841Z,4.18
2023-02-24T05:57:20.070Z,4.16
2023-02-24T05:58:20.293Z,4.16
2023-02-24T05:59:20.294Z,4.13
2023-02-24T06:00:20.304Z,4.13
2023-02-24T06:01:19.971Z,4.09
2023-02-24T06:02:19.999Z,4.12
2023-02-24T06:03:20.146Z,4.10
2023-02-24T06:04:20.330Z,4.12
2023-02-24T06:05:20.974Z,4.10
2023-02-24T06:06:19.650Z,4.09
2023-02-24T06:07:19.806Z,4.12
2023-02-24T06:08:20.362Z,4.09
2023-02-24T06:09:19.572Z,4.09
2023-02-24T06:10:19.577Z,4.10
2023-02-24T06:11:19.907Z,4.12
2023-02-24T06:12:19.604Z,4.12
2023-02-24T06:13:19.589Z,4.12
2023-02-24T06:14:19.707Z,4.10
2023-02-24T06:15:19.707Z,4.12
2023-02-24T06:16:19.768Z,4.09
2023-02-24T06:17:20.057Z,4.08
2023-02-24T06:18:21.020Z,4.12
2023-02-24T06:19:19.840Z,4.13
2023-02-24T06:20:19.952Z,4.10
2023-02-24T06:21:20.339Z,4.13
2023-02-24T06:22:19.558Z,4.12
2023-02-24T06:23:19.502Z,4.08
2023-02-24T06:24:19.485Z,4.13
2023-02-24T06:25:19.477Z,4.08
2023-02-24T06:26:19.741Z,4.12
2023-02-24T06:27:19.484Z,4.09
2023-02-24T06:28:19.504Z,4.09
2023-02-24T06:29:19.445Z,4.10
2023-02-24T06:30:19.611Z,4.08
2023-02-24T06:31:20.214Z,4.12
2023-02-24T06:32:19.726Z,4.08
2023-02-24T06:33:19.624Z,4.12
2023-02-24T06:34:19.636Z,4.09
2023-02-24T06:35:19.643Z,4.08
2023-02-24T06:36:19.555Z,4.16
2023-02-24T06:37:19.664Z,4.09
2023-02-24T06:38:19.667Z,4.12
2023-02-24T06:39:19.674Z,4.08
2023-02-24T06:40:19.395Z,4.09
2023-02-24T06:41:21.207Z,4.06
2023-02-24T06:42:19.794Z,4.06
2023-02-24T06:43:19.586Z,4.09
2023-02-24T06:44:20.216Z,4.08
2023-02-24T06:45:19.534Z,4.10
2023-02-24T06:46:19.783Z,4.08
2023-02-24T06:47:19.414Z,4.08
2023-02-24T06:48:19.623Z,4.08
2023-02-24T06:49:20.135Z,4.09
2023-02-24T06:50:19.327Z,4.03
2023-02-24T06:51:19.712Z,4.05
2023-02-24T06:52:19.535Z,4.02
2023-02-24T06:53:19.454Z,4.05
2023-02-24T06:54:19.463Z,4.03
2023-02-24T06:55:19.272Z,4.02
2023-02-24T06:56:19.576Z,4.03
2023-02-24T06:57:19.303Z,4.05
2023-02-24T06:58:19.302Z,4.08
2023-02-24T06:59:19.292Z,4.03
2023-02-24T07:00:19.301Z,4.00
2023-02-24T07:01:20.172Z,4.05
2023-02-24T07:02:19.311Z,4.03
2023-02-24T07:03:20.953Z,4.08
2023-02-24T07:04:19.251Z,4.06
2023-02-24T07:05:19.329Z,4.02
2023-02-24T07:06:19.340Z,4.03
2023-02-24T07:07:19.347Z,4.05
2023-02-24T07:08:19.358Z,4.06
2023-02-24T07:09:19.194Z,4.09
2023-02-24T07:10:19.188Z,4.08
2023-02-24T07:11:19.591Z,4.08
2023-02-24T07:12:19.177Z,4.08
2023-02-24T07:13:19.180Z,4.08
2023-02-24T07:14:19.196Z,4.10
2023-02-24T07:15:19.196Z,4.13
2023-02-24T07:16:19.550Z,4.16
2023-02-24T07:17:19.413Z,4.17
2023-02-24T07:18:19.424Z,4.18
2023-02-24T07:19:19.127Z,4.17
2023-02-24T07:20:19.128Z,4.18
2023-02-24T07:21:19.296Z,4.18
2023-02-24T07:22:19.142Z,4.23
2023-02-24T07:23:19.263Z,4.24
2023-02-24T07:24:19.273Z,4.21
2023-02-24T07:25:19.274Z,4.20
2023-02-24T07:26:19.081Z,4.17
2023-02-24T07:27:19.183Z,4.17
2023-02-24T07:28:19.085Z,4.24
2023-02-24T07:29:19.080Z,4.23
2023-02-24T07:30:19.069Z,4.20
2023-02-24T07:31:19.328Z,4.23
2023-02-24T07:32:19.372Z,4.24
2023-02-24T07:33:19.091Z,4.23
2023-02-24T07:34:19.224Z,4.26
2023-02-24T07:35:19.022Z,4.23
2023-02-24T07:36:19.031Z,4.28
2023-02-24T07:37:19.330Z,4.27
2023-02-24T07:38:19.421Z,4.24
2023-02-24T07:39:19.048Z,4.30
2023-02-24T07:40:18.978Z,4.34
2023-02-24T07:41:19.548Z,4.31
2023-02-24T07:42:19.456Z,4.31
2023-02-24T07:43:19.045Z,4.39
2023-02-24T07:44:19.058Z,4.36
2023-02-24T07:45:19.044Z,4.38
2023-02-24T07:46:19.256Z,4.36
2023-02-24T07:47:18.952Z,4.38
2023-02-24T07:48:19.501Z,4.38
2023-02-24T07:49:19.091Z,4.38
2023-02-24T07:50:18.935Z,4.38
2023-02-24T07:51:19.162Z,4.39
2023-02-24T07:52:19.314Z,4.39
2023-02-24T07:53:19.756Z,4.43
2023-02-24T07:54:19.661Z,4.41
2023-02-24T07:55:18.942Z,4.38
2023-02-24T07:56:19.682Z,4.36
2023-02-24T07:57:19.091Z,4.39
2023-02-24T07:58:18.949Z,4.36
2023-02-24T07:59:19.133Z,4.36
2023-02-24T08:00:19.793Z,4.38
2023-02-24T08:01:19.162Z,4.38
2023-02-24T08:02:18.898Z,4.43
2023-02-24T08:03:19.109Z,4.38
2023-02-24T08:04:19.651Z,4.42
2023-02-24T08:05:18.859Z,4.41
2023-02-24T08:06:19.537Z,4.45
2023-02-24T08:07:18.826Z,4.46
2023-02-24T08:08:18.856Z,4.45
2023-02-24T08:09:18.826Z,4.43
2023-02-24T08:10:19.027Z,4.48
2023-02-24T08:11:19.115Z,4.42
2023-02-24T08:12:18.969Z,4.46
2023-02-24T08:13:18.774Z,4.46
2023-02-24T08:14:18.816Z,4.46
2023-02-24T08:15:19.194Z,4.48
2023-02-24T08:16:19.257Z,4.49
2023-02-24T08:17:18.805Z,4.53
2023-02-24T08:18:18.805Z,4.51
2023-02-24T08:19:18.815Z,4.48
2023-02-24T08:20:18.823Z,4.43
2023-02-24T08:21:19.396Z,4.42
2023-02-24T08:22:18.746Z,4.46
2023-02-24T08:23:19.061Z,4.49
2023-02-24T08:24:19.054Z,4.51
2023-02-24T08:25:19.393Z,4.51
2023-02-24T08:26:19.168Z,4.51
2023-02-24T08:27:19.153Z,4.49
2023-02-24T08:28:19.122Z,4.49
2023-02-24T08:29:18.941Z,4.49
2023-02-24T08:30:18.684Z,4.49
2023-02-24T08:31:19.817Z,4.51
2023-02-24T08:32:20.757Z,4.51
2023-02-24T08:33:18.943Z,4.53
2023-02-24T08:34:18.976Z,4.61
2023-02-24T08:35:19.492Z,4.59
2023-02-24T08:36:18.621Z,4.61
2023-02-24T08:37:18.943Z,4.59
2023-02-24T08:38:18.789Z,4.60
2023-02-24T08:39:18.620Z,4.61
2023-02-24T08:40:19.521Z,4.57
2023-02-24T08:41:19.682Z,4.54
2023-02-24T08:42:18.590Z,4.54
2023-02-24T08:43:19.176Z,4.57
2023-02-24T08:44:18.678Z,4.56
2023-02-24T08:45:18.590Z,4.61
2023-02-24T08:46:18.950Z,4.57
2023-02-24T08:47:18.571Z,4.60
2023-02-24T08:48:18.599Z,4.64
2023-02-24T08:49:18.579Z,4.63
2023-02-24T08:50:18.821Z,4.71
2023-02-24T08:51:18.788Z,4.61
2023-02-24T08:52:18.831Z,4.57
2023-02-24T08:53:18.591Z,4.51
2023-02-24T08:54:18.904Z,4.51
2023-02-24T08:55:18.910Z,4.46
2023-02-24T08:56:18.683Z,4.46
2023-02-24T08:57:18.898Z,4.48
2023-02-24T08:58:19.080Z,4.48
2023-02-24T08:59:19.097Z,4.49
2023-02-24T09:00:19.199Z,4.54
2023-02-24T09:02:44.923Z,4.51
2023-02-24T09:03:44.945Z,4.57
2023-02-24T09:04:45.086Z,4.54
2023-02-24T09:05:44.729Z,4.54
2023-02-24T09:06:45.164Z,4.57
2023-02-24T09:07:45.164Z,4.54
2023-02-24T09:08:44.779Z,4.57
2023-02-24T09:09:44.396Z,4.57
2023-02-24T09:10:45.190Z,4.59
2023-02-24T09:11:45.225Z,4.56
2023-02-24T09:12:44.805Z,4.57
2023-02-24T09:13:45.197Z,4.59
2023-02-24T09:14:45.189Z,4.56
2023-02-24T09:15:44.391Z,4.60
2023-02-24T09:16:44.653Z,4.63
2023-02-24T09:17:45.031Z,4.61
2023-02-24T09:18:45.025Z,4.63
2023-02-24T09:19:45.215Z,4.67
2023-02-24T09:20:45.124Z,4.69
2023-02-24T09:21:44.672Z,4.75
2023-02-24T09:22:44.304Z,4.77
2023-02-24T09:23:44.293Z,4.78
2023-02-24T09:24:44.451Z,4.78
2023-02-24T09:25:44.451Z,4.78
2023-02-24T09:26:44.469Z,4.75
2023-02-24T09:27:44.264Z,4.72
2023-02-24T09:28:44.480Z,4.74
2023-02-24T09:29:44.520Z,4.75
2023-02-24T09:30:44.714Z,4.77
2023-02-24T09:31:44.784Z,4.79
2023-02-24T09:32:44.433Z,4.82
2023-02-24T09:33:44.229Z,4.77
2023-02-24T09:34:44.311Z,4.72
2023-02-24T09:35:44.725Z,4.72
2023-02-24T09:36:44.978Z,4.66
2023-02-24T09:37:44.955Z,4.63
2023-02-24T09:38:44.795Z,4.61
2023-02-24T09:39:44.188Z,4.63
2023-02-24T09:40:44.556Z,4.69
2023-02-24T09:41:44.360Z,4.67
2023-02-24T09:42:45.061Z,4.71
2023-02-24T09:43:44.194Z,4.69
2023-02-24T09:44:44.424Z,4.69
2023-02-24T09:45:44.486Z,4.67
2023-02-24T09:46:44.852Z,4.67
2023-02-24T09:47:44.846Z,4.66
2023-02-24T09:48:44.997Z,4.66
2023-02-24T09:49:44.856Z,4.64
2023-02-24T09:51:01.488Z,4.69
2023-02-24T09:51:44.235Z,4.69
2023-02-24T09:52:44.088Z,4.69
2023-02-24T09:53:44.077Z,4.66
2023-02-24T09:54:44.284Z,4.69
2023-02-24T09:55:44.260Z,4.74
2023-02-24T09:56:44.088Z,4.72
2023-02-24T09:57:44.499Z,4.64
2023-02-24T09:58:44.415Z,4.66
2023-02-24T09:59:44.726Z,4.66
2023-02-24T10:00:44.377Z,4.63
2023-02-24T10:01:44.094Z,4.63
2023-02-24T10:02:44.398Z,4.63
2023-02-24T10:03:44.312Z,4.63
2023-02-24T10:04:44.052Z,4.67
2023-02-24T10:05:44.081Z,4.64
2023-02-24T10:06:44.321Z,4.63
2023-02-24T10:07:44.001Z,4.63
2023-02-24T10:08:44.003Z,4.57
2023-02-24T10:09:44.140Z,4.57
2023-02-24T10:10:43.971Z,4.56
2023-02-24T10:11:43.961Z,4.59
2023-02-24T10:12:43.971Z,4.57
2023-02-24T10:13:43.965Z,4.61
2023-02-24T10:14:44.639Z,4.61
2023-02-24T10:15:44.000Z,4.59
2023-02-24T10:16:44.010Z,4.56
2023-02-24T10:17:44.013Z,4.59
2023-02-24T10:18:44.028Z,4.61
2023-02-24T10:19:44.008Z,4.64
2023-02-24T10:20:44.155Z,4.63
2023-02-24T10:21:44.019Z,4.69
2023-02-24T10:22:43.909Z,4.67
2023-02-24T10:23:44.049Z,4.63
2023-02-24T10:24:44.045Z,4.61
2023-02-24T10:25:44.057Z,4.60
2023-02-24T10:26:54.483Z,4.60
2023-02-24T10:27:43.857Z,4.54
2023-02-24T10:28:44.080Z,4.53
2023-02-24T10:29:43.867Z,4.56
2023-02-24T10:30:44.168Z,4.54
2023-02-24T10:31:44.351Z,4.45
2023-02-24T10:32:43.893Z,4.41
2023-02-24T10:33:44.105Z,4.36
2023-02-24T10:34:44.116Z,4.36
2023-02-24T10:35:44.120Z,4.38
2023-02-24T10:36:44.125Z,4.41
2023-02-24T10:37:43.942Z,4.43
2023-02-24T10:38:43.938Z,4.41
2023-02-24T10:39:43.798Z,4.38
2023-02-24T10:40:43.960Z,4.35
2023-02-24T10:41:43.814Z,4.35
2023-02-24T10:42:43.782Z,4.34
2023-02-24T10:43:44.029Z,4.35
2023-02-24T10:44:46.506Z,4.34
2023-02-24T10:45:44.013Z,4.35
2023-02-24T10:46:44.223Z,4.38
2023-02-24T10:47:43.831Z,4.38
2023-02-24T10:48:43.843Z,4.36
2023-02-24T10:49:43.808Z,4.34
2023-02-24T10:50:54.890Z,4.36
2023-02-24T10:51:43.700Z,4.28
2023-02-24T10:52:44.075Z,4.20
2023-02-24T10:53:46.308Z,4.20
2023-02-24T10:54:43.730Z,4.21
2023-02-24T10:55:43.692Z,4.16
2023-02-24T10:56:43.852Z,4.13
2023-02-24T10:57:57.884Z,4.09
2023-02-24T10:58:44.091Z,4.06
2023-02-24T10:59:44.121Z,4.06
2023-02-24T11:00:43.710Z,4.12
2023-02-24T11:01:44.000Z,4.10
2023-02-24T11:02:44.593Z,4.03
2023-02-24T11:03:44.457Z,4.02
2023-02-24T11:04:44.032Z,3.98
2023-02-24T11:05:44.531Z,3.96
2023-02-24T11:06:44.418Z,3.88
2023-02-24T11:07:44.565Z,3.87
2023-02-24T11:08:44.189Z,3.84
2023-02-24T11:09:44.353Z,3.81
2023-02-24T11:10:43.953Z,3.78
2023-02-24T11:11:44.443Z,3.74
2023-02-24T11:12:43.583Z,3.76
2023-02-24T11:13:43.562Z,3.81
2023-02-24T11:14:44.129Z,3.81
2023-02-24T11:15:44.574Z,3.76
2023-02-24T11:16:43.624Z,3.74
2023-02-24T11:17:43.616Z,3.74
2023-02-24T11:18:43.800Z,3.76
2023-02-24T11:19:43.799Z,3.70
2023-02-24T11:20:49.378Z,3.72
2023-02-24T11:21:43.854Z,3.78
2023-02-24T11:22:43.826Z,3.73
2023-02-24T11:23:43.828Z,3.74
2023-02-24T11:24:44.050Z,3.78
2023-02-24T11:25:44.054Z,3.76
2023-02-24T11:26:44.093Z,3.82
2023-02-24T11:27:43.469Z,3.80
2023-02-24T11:28:43.864Z,3.81
2023-02-24T11:29:44.256Z,3.90
2023-02-24T11:30:44.396Z,3.85
2023-02-24T11:31:44.241Z,3.88
2023-02-24T11:32:43.480Z,3.91
2023-02-24T11:33:44.505Z,3.94
2023-02-24T11:34:44.107Z,3.96
2023-02-24T11:35:43.494Z,3.92
2023-02-24T11:36:43.612Z,3.94
2023-02-24T11:37:43.719Z,3.90
2023-02-24T11:38:44.414Z,3.91
2023-02-24T11:39:43.374Z,3.91
2023-02-24T11:40:43.373Z,3.94
2023-02-24T11:41:43.555Z,3.91
2023-02-24T11:42:43.564Z,3.90
2023-02-24T11:43:43.565Z,3.84
2023-02-24T11:44:43.597Z,3.92
2023-02-24T11:45:43.461Z,3.87
2023-02-24T11:46:43.651Z,3.88
2023-02-24T11:47:43.806Z,3.88
2023-02-24T11:48:43.809Z,3.91
2023-02-24T11:49:43.852Z,3.94
2023-02-24T11:50:43.390Z,3.92
2023-02-24T11:51:43.843Z,3.94
2023-02-24T11:52:44.041Z,3.92
2023-02-24T11:53:43.285Z,3.90
2023-02-24T11:54:43.412Z,3.98
2023-02-24T11:55:43.425Z,3.96
2023-02-24T11:56:43.432Z,4.00
2023-02-24T11:57:43.640Z,4.02
2023-02-24T11:58:43.249Z,3.99
2023-02-24T11:59:43.241Z,3.92
2023-02-24T12:00:43.293Z,3.98
2023-02-24T12:01:43.242Z,3.96
2023-02-24T12:02:43.319Z,4.02
2023-02-24T12:03:43.270Z,4.02
2023-02-24T12:04:43.295Z,4.02
2023-02-24T12:05:43.225Z,4.05
2023-02-24T12:06:43.290Z,4.00
2023-02-24T12:07:43.199Z,4.06
2023-02-24T12:08:43.198Z,4.10
2023-02-24T12:09:43.211Z,4.12
2023-02-24T12:10:43.205Z,4.12
2023-02-24T12:11:43.166Z,4.03
2023-02-24T12:12:43.198Z,3.94
2023-02-24T12:13:43.146Z,3.88
2023-02-24T12:14:43.146Z,3.90
2023-02-24T12:15:43.155Z,3.90
2023-02-24T12:16:43.175Z,3.92
2023-02-24T12:17:43.467Z,3.88
2023-02-24T12:18:43.583Z,3.87
2023-02-24T12:19:43.115Z,3.91
2023-02-24T12:20:43.175Z,3.94
2023-02-24T12:21:43.185Z,3.96
2023-02-24T12:22:43.196Z,3.90
2023-02-24T12:23:43.075Z,3.87
2023-02-24T12:24:43.205Z,3.85
2023-02-24T12:25:43.095Z,3.82
2023-02-24T12:26:43.119Z,3.84
2023-02-24T12:27:43.090Z,3.78
2023-02-24T12:28:43.053Z,3.82
2023-02-24T12:29:43.084Z,3.82
2023-02-24T12:30:43.095Z,3.80
2023-02-24T12:31:43.369Z,3.76
2023-02-24T12:32:43.228Z,3.78
2023-02-24T12:33:43.270Z,3.74
2023-02-24T12:34:43.269Z,3.72
2023-02-24T12:35:43.280Z,3.69
2023-02-24T12:36:43.291Z,3.66
2023-02-24T12:37:43.001Z,3.67
2023-02-24T12:38:43.056Z,3.66
2023-02-24T12:39:43.107Z,3.66
2023-02-24T12:40:43.129Z,3.64
2023-02-24T12:41:43.325Z,3.74
2023-02-24T12:42:43.329Z,3.74
2023-02-24T12:43:43.116Z,3.80
2023-02-24T12:44:43.127Z,3.76
2023-02-24T12:45:43.427Z,3.73
2023-02-24T12:46:43.003Z,3.74
2023-02-24T12:47:43.386Z,3.78
2023-02-24T12:48:42.951Z,3.80
2023-02-24T12:49:43.368Z,3.74
2023-02-24T12:50:43.418Z,3.74
2023-02-24T12:51:43.582Z,3.78
2023-02-24T12:52:43.073Z,3.80
2023-02-24T12:53:43.630Z,3.72
2023-02-24T12:54:43.463Z,3.74
2023-02-24T12:55:42.857Z,3.70
2023-02-24T12:56:42.853Z,3.69
2023-02-24T12:57:42.929Z,3.70
2023-02-24T12:58:42.950Z,3.66
2023-02-24T12:59:42.832Z,3.67
2023-02-24T13:00:42.885Z,3.67
2023-02-24T13:01:43.638Z,3.70
2023-02-24T13:02:42.887Z,3.70
2023-02-24T13:03:43.040Z,3.69
2023-02-24T13:04:43.589Z,3.66
2023-02-24T13:05:42.854Z,3.64
2023-02-24T13:06:42.864Z,3.63
2023-02-24T13:07:42.899Z,3.63
2023-02-24T13:08:42.800Z,3.59
2023-02-24T13:09:42.837Z,3.59
2023-02-24T13:10:42.874Z,3.59
2023-02-24T13:11:42.862Z,3.59
2023-02-24T13:12:42.965Z,3.64
2023-02-24T13:13:43.024Z,3.60
2023-02-24T13:14:42.936Z,3.60
2023-02-24T13:15:43.104Z,3.62
2023-02-24T13:16:42.911Z,3.59
2023-02-24T13:17:43.207Z,3.60
2023-02-24T13:18:43.252Z,3.59
2023-02-24T13:19:43.051Z,3.63
2023-02-24T13:20:44.142Z,3.64
2023-02-24T13:21:42.714Z,3.67